createdAt,value
2023-02-12T00:00:39.945Z,1013.03
2023-02-12T00:01:39.923Z,1013.13
2023-02-12T00:02:40.002Z,1013.09
2023-02-12T00:03:40.022Z,1013.10
2023-02-12T00:04:39.903Z,1013.09
2023-02-12T00:05:39.883Z,1013.11
2023-02-12T00:06:39.881Z,1013.11
2023-02-12T00:07:40.475Z,1013.11
2023-02-12T00:08:39.861Z,1013.13
2023-02-12T00:09:39.853Z,1013.11
2023-02-12T00:10:39.845Z,1013.12
2023-02-12T00:11:41.486Z,1013.12
2023-02-12T00:13:46.143Z,1013.12
2023-02-12T00:14:46.135Z,1013.14
2023-02-12T00:15:46.134Z,1013.15
2023-02-12T00:16:46.108Z,1013.11
2023-02-12T00:17:46.105Z,1013.13
2023-02-12T00:18:46.103Z,1013.13
2023-02-12T00:19:46.098Z,1013.10
2023-02-12T00:20:46.085Z,1013.14
2023-02-12T00:21:46.088Z,1013.16
2023-02-12T00:22:46.066Z,1013.15
2023-02-12T00:23:46.066Z,1013.16
2023-02-12T00:25:29.257Z,1013.14
2023-02-12T00:26:29.253Z,1013.18
2023-02-12T00:27:30.111Z,1013.17
2023-02-12T00:28:29.379Z,1013.23
2023-02-12T00:29:29.239Z,1013.23
2023-02-12T00:30:29.241Z,1013.22
2023-02-12T00:31:29.262Z,1013.15
2023-02-12T00:32:29.212Z,1013.15
2023-02-12T00:33:29.204Z,1013.19
2023-02-12T00:34:29.201Z,1013.18
2023-02-12T00:35:29.197Z,1013.15
2023-02-12T00:36:29.203Z,1013.13
2023-02-12T00:37:29.169Z,1013.09
2023-02-12T00:38:29.167Z,1013.10
2023-02-12T00:39:29.158Z,1013.16
2023-02-12T00:40:29.152Z,1013.10
2023-02-12T00:41:29.154Z,1013.11
2023-02-12T00:42:29.132Z,1013.18
2023-02-12T00:43:29.123Z,1013.17
2023-02-12T00:44:29.124Z,1013.10
2023-02-12T00:45:29.111Z,1013.14
2023-02-12T00:46:29.169Z,1013.19
2023-02-12T00:47:29.094Z,1013.16
2023-02-12T00:48:29.097Z,1013.15
2023-02-12T00:49:29.074Z,1013.11
2023-02-12T00:50:31.738Z,1013.13
2023-02-12T00:51:29.065Z,1013.13
2023-02-12T00:52:29.063Z,1013.10
2023-02-12T00:53:29.053Z,1013.13
2023-02-12T00:54:29.034Z,1013.12
2023-02-12T00:55:30.611Z,1013.06
2023-02-12T00:56:29.016Z,1013.13
2023-02-12T00:57:29.013Z,1013.14
2023-02-12T00:58:28.992Z,1013.11
2023-02-12T00:59:28.993Z,1013.09
2023-02-12T01:00:28.976Z,1013.07
2023-02-12T01:01:28.982Z,1013.10
2023-02-12T01:02:28.980Z,1013.06
2023-02-12T01:03:28.955Z,1013.07
2023-02-12T01:04:28.947Z,1013.04
2023-02-12T01:05:28.949Z,1012.99
2023-02-12T01:06:28.927Z,1013.11
2023-02-12T01:07:28.938Z,1013.05
2023-02-12T01:08:28.914Z,1013.09
2023-02-12T01:09:28.915Z,1013.11
2023-02-12T01:10:28.901Z,1013.13
2023-02-12T01:11:28.891Z,1013.13
2023-02-12T01:12:29.973Z,1013.12
2023-02-12T01:13:31.669Z,1013.09
2023-02-12T01:14:29.971Z,1013.10
2023-02-12T01:15:29.967Z,1013.13
2023-02-12T01:16:29.989Z,1013.08
2023-02-12T01:17:29.943Z,1013.09
2023-02-12T01:18:29.941Z,1013.12
2023-02-12T01:19:29.918Z,1013.11
2023-02-12T01:20:29.913Z,1013.04
2023-02-12T01:21:29.899Z,1013.05
2023-02-12T01:22:29.912Z,1013.06
2023-02-12T01:23:29.905Z,1013.04
2023-02-12T01:24:29.895Z,1013.07
2023-02-12T01:25:29.873Z,1013.08
2023-02-12T01:26:29.884Z,1013.07
2023-02-12T01:27:29.854Z,1013.14
2023-02-12T01:28:29.921Z,1013.10
2023-02-12T01:29:29.862Z,1013.10
2023-02-12T01:30:29.842Z,1013.12
2023-02-12T01:31:29.916Z,1013.13
2023-02-12T01:32:29.820Z,1013.15
2023-02-12T01:33:29.820Z,1013.15
2023-02-12T01:34:29.803Z,1013.12
2023-02-12T01:35:29.811Z,1013.09
2023-02-12T01:36:29.795Z,1013.13
2023-02-12T01:37:29.779Z,1013.08
2023-02-12T01:38:29.771Z,1013.11
2023-02-12T01:39:29.768Z,1013.10
2023-02-12T01:40:29.765Z,1013.08
2023-02-12T01:41:29.749Z,1013.07
2023-02-12T01:42:29.749Z,1013.12
2023-02-12T01:43:29.730Z,1013.09
2023-02-12T01:44:29.737Z,1013.04
2023-02-12T01:45:30.706Z,1013.08
2023-02-12T01:46:29.784Z,1013.04
2023-02-12T01:47:29.719Z,1013.04
2023-02-12T01:48:29.693Z,1013.04
2023-02-12T01:49:29.683Z,1013.05
2023-02-12T01:50:29.689Z,1013.01
2023-02-12T01:52:02.666Z,1013.03
2023-02-12T01:52:29.662Z,1013.03
2023-02-12T01:53:29.665Z,1012.98
2023-02-12T01:54:29.658Z,1013.05
2023-02-12T01:55:29.655Z,1013.01
2023-02-12T01:56:29.632Z,1013.05
2023-02-12T01:57:29.633Z,1013.08
2023-02-12T01:58:29.621Z,1012.96
2023-02-12T01:59:29.634Z,1013.00
2023-02-12T02:00:29.605Z,1012.97
2023-02-12T02:01:29.729Z,1013.03
2023-02-12T02:02:29.602Z,1013.01
2023-02-12T02:03:29.657Z,1012.95
2023-02-12T02:04:29.589Z,1013.01
2023-02-12T02:05:29.613Z,1012.97
2023-02-12T02:06:29.557Z,1012.96
2023-02-12T02:07:29.553Z,1013.01
2023-02-12T02:08:29.538Z,1012.96
2023-02-12T02:09:29.538Z,1012.98
2023-02-12T02:10:30.189Z,1012.95
2023-02-12T02:11:29.516Z,1013.00
2023-02-12T02:12:29.514Z,1012.98
2023-02-12T02:13:29.491Z,1013.00
2023-02-12T02:14:29.514Z,1012.99
2023-02-12T02:15:29.481Z,1013.04
2023-02-12T02:16:29.541Z,1013.00
2023-02-12T02:17:29.461Z,1012.97
2023-02-12T02:18:29.456Z,1013.03
2023-02-12T02:19:29.453Z,1013.00
2023-02-12T02:20:29.795Z,1012.99
2023-02-12T02:21:30.005Z,1013.03
2023-02-12T02:22:30.626Z,1013.00
2023-02-12T02:23:31.131Z,1013.00
2023-02-12T02:24:29.652Z,1012.99
2023-02-12T02:25:29.732Z,1012.97
2023-02-12T02:26:30.123Z,1012.95
2023-02-12T02:27:29.650Z,1012.89
2023-02-12T02:28:29.673Z,1012.87
2023-02-12T02:29:31.328Z,1012.88
2023-02-12T02:30:29.397Z,1012.86
2023-02-12T02:31:29.555Z,1012.82
2023-02-12T02:32:29.348Z,1012.82
2023-02-12T02:33:29.367Z,1012.90
2023-02-12T02:34:30.267Z,1012.85
2023-02-12T02:35:29.358Z,1012.84
2023-02-12T02:36:29.337Z,1012.85
2023-02-12T02:37:29.312Z,1012.86
2023-02-12T02:38:29.311Z,1012.90
2023-02-12T02:39:29.347Z,1012.79
2023-02-12T02:40:29.296Z,1012.76
2023-02-12T02:41:29.288Z,1012.78
2023-02-12T02:42:29.265Z,1012.79
2023-02-12T02:43:29.271Z,1012.81
2023-02-12T02:44:29.263Z,1012.78
2023-02-12T02:45:29.248Z,1012.78
2023-02-12T02:46:29.309Z,1012.70
2023-02-12T02:47:29.278Z,1012.67
2023-02-12T02:48:29.232Z,1012.74
2023-02-12T02:49:29.208Z,1012.68
2023-02-12T02:50:32.771Z,1012.77
2023-02-12T02:51:29.192Z,1012.74
2023-02-12T02:52:29.218Z,1012.76
2023-02-12T02:53:29.180Z,1012.78
2023-02-12T02:54:29.174Z,1012.75
2023-02-12T02:55:29.160Z,1012.84
2023-02-12T02:56:29.747Z,1012.82
2023-02-12T02:57:29.160Z,1012.83
2023-02-12T02:58:29.141Z,1012.81
2023-02-12T02:59:29.156Z,1012.81
2023-02-12T03:00:30.745Z,1012.85
2023-02-12T03:01:29.116Z,1012.81
2023-02-12T03:02:29.772Z,1012.80
2023-02-12T03:03:29.155Z,1012.78
2023-02-12T03:04:29.091Z,1012.84
2023-02-12T03:05:29.080Z,1012.81
2023-02-12T03:06:29.085Z,1012.75
2023-02-12T03:07:29.083Z,1012.78
2023-02-12T03:08:29.069Z,1012.76
2023-02-12T03:09:29.053Z,1012.80
2023-02-12T03:10:29.039Z,1012.80
2023-02-12T03:11:29.037Z,1012.72
2023-02-12T03:12:29.077Z,1012.82
2023-02-12T03:13:29.072Z,1012.74
2023-02-12T03:14:29.103Z,1012.80
2023-02-12T03:15:29.054Z,1012.79
2023-02-12T03:16:29.040Z,1012.85
2023-02-12T03:17:29.056Z,1012.79
2023-02-12T03:18:29.047Z,1012.83
2023-02-12T03:19:29.035Z,1012.79
2023-02-12T03:21:35.831Z,1012.88
2023-02-12T03:22:35.826Z,1012.90
2023-02-12T03:23:35.819Z,1012.85
2023-02-12T03:24:35.814Z,1012.88
2023-02-12T03:25:36.904Z,1012.82
2023-02-12T03:26:36.914Z,1012.87
2023-02-12T03:27:36.883Z,1012.83
2023-02-12T03:28:37.040Z,1012.83
2023-02-12T03:29:36.870Z,1012.83
2023-02-12T03:30:36.885Z,1012.90
2023-02-12T03:31:36.902Z,1012.85
2023-02-12T03:32:36.853Z,1012.82
2023-02-12T03:33:36.882Z,1012.83
2023-02-12T03:34:36.833Z,1012.83
2023-02-12T03:35:36.830Z,1012.83
2023-02-12T03:36:36.813Z,1012.84
2023-02-12T03:37:36.815Z,1012.81
2023-02-12T03:38:36.819Z,1012.84
2023-02-12T03:39:36.792Z,1012.84
2023-02-12T03:40:36.780Z,1012.81
2023-02-12T03:41:37.774Z,1012.84
2023-02-12T03:42:36.775Z,1012.87
2023-02-12T03:43:36.761Z,1012.87
2023-02-12T03:44:36.747Z,1012.83
2023-02-12T03:45:36.756Z,1012.88
2023-02-12T03:46:36.730Z,1012.85
2023-02-12T03:47:36.732Z,1012.87
2023-02-12T03:48:36.721Z,1012.77
2023-02-12T03:49:37.277Z,1012.84
2023-02-12T03:50:36.726Z,1012.91
2023-02-12T03:51:36.696Z,1012.83
2023-02-12T03:52:36.686Z,1012.91
2023-02-12T03:53:36.700Z,1012.90
2023-02-12T03:54:37.194Z,1012.83
2023-02-12T03:55:36.667Z,1012.84
2023-02-12T03:56:36.672Z,1012.89
2023-02-12T03:57:37.201Z,1012.92
2023-02-12T03:58:36.654Z,1012.93
2023-02-12T03:59:36.639Z,1012.90
2023-02-12T04:00:37.201Z,1012.90
2023-02-12T04:01:37.468Z,1012.86
2023-02-12T04:02:36.605Z,1012.91
2023-02-12T04:03:36.614Z,1012.90
2023-02-12T04:04:36.646Z,1012.92
2023-02-12T04:05:36.585Z,1012.92
2023-02-12T04:06:36.584Z,1012.95
2023-02-12T04:07:36.562Z,1012.98
2023-02-12T04:08:36.554Z,1013.05
2023-02-12T04:09:36.546Z,1013.05
2023-02-12T04:10:37.269Z,1013.08
2023-02-12T04:11:36.543Z,1012.99
2023-02-12T04:12:36.530Z,1013.05
2023-02-12T04:13:37.192Z,1013.06
2023-02-12T04:14:36.524Z,1013.03
2023-02-12T04:15:36.510Z,1013.05
2023-02-12T04:16:38.054Z,1013.13
2023-02-12T04:17:37.485Z,1013.07
2023-02-12T04:18:36.471Z,1013.11
2023-02-12T04:19:36.459Z,1013.12
2023-02-12T04:20:36.462Z,1013.11
2023-02-12T04:21:36.458Z,1013.13
2023-02-12T04:22:36.792Z,1013.15
2023-02-12T04:23:36.424Z,1013.16
2023-02-12T04:24:36.424Z,1013.16
2023-02-12T04:25:36.420Z,1013.19
2023-02-12T04:26:36.402Z,1013.19
2023-02-12T04:27:36.398Z,1013.23
2023-02-12T04:28:36.457Z,1013.18
2023-02-12T04:29:36.380Z,1013.23
2023-02-12T04:30:36.482Z,1013.21
2023-02-12T04:31:36.516Z,1013.26
2023-02-12T04:32:36.366Z,1013.29
2023-02-12T04:33:36.354Z,1013.26
2023-02-12T04:34:36.352Z,1013.30
2023-02-12T04:35:36.341Z,1013.32
2023-02-12T04:36:36.364Z,1013.29
2023-02-12T04:37:36.321Z,1013.28
2023-02-12T04:38:36.319Z,1013.25
2023-02-12T04:39:36.312Z,1013.29
2023-02-12T04:40:36.301Z,1013.36
2023-02-12T04:41:36.297Z,1013.31
2023-02-12T04:42:36.279Z,1013.33
2023-02-12T04:43:37.290Z,1013.35
2023-02-12T04:44:36.785Z,1013.36
2023-02-12T04:45:36.257Z,1013.36
2023-02-12T04:46:36.255Z,1013.36
2023-02-12T04:47:36.244Z,1013.38
2023-02-12T04:48:36.237Z,1013.39
2023-02-12T04:49:36.230Z,1013.38
2023-02-12T04:50:37.149Z,1013.38
2023-02-12T04:51:37.221Z,1013.41
2023-02-12T04:52:36.201Z,1013.40
2023-02-12T04:53:36.194Z,1013.40
2023-02-12T04:54:36.192Z,1013.38
2023-02-12T04:55:36.179Z,1013.38
2023-02-12T04:56:36.186Z,1013.36
2023-02-12T04:57:36.157Z,1013.36
2023-02-12T04:58:36.156Z,1013.34
2023-02-12T04:59:36.170Z,1013.45
2023-02-12T05:00:36.138Z,1013.35
2023-02-12T05:01:36.214Z,1013.39
2023-02-12T05:02:36.123Z,1013.34
2023-02-12T05:03:36.123Z,1013.35
2023-02-12T05:04:36.123Z,1013.38
2023-02-12T05:05:36.120Z,1013.32
2023-02-12T05:06:36.106Z,1013.32
2023-02-12T05:07:36.122Z,1013.33
2023-02-12T05:08:36.083Z,1013.37
2023-02-12T05:09:36.067Z,1013.34
2023-02-12T05:10:36.800Z,1013.29
2023-02-12T05:11:36.061Z,1013.34
2023-02-12T05:12:36.040Z,1013.37
2023-02-12T05:13:36.032Z,1013.32
2023-02-12T05:14:36.030Z,1013.30
2023-02-12T05:15:36.036Z,1013.33
2023-02-12T05:16:36.010Z,1013.36
2023-02-12T05:17:36.006Z,1013.34
2023-02-12T05:18:35.999Z,1013.33
2023-02-12T05:19:35.996Z,1013.39
2023-02-12T05:20:35.995Z,1013.37
2023-02-12T05:21:35.984Z,1013.34
2023-02-12T05:22:35.971Z,1013.36
2023-02-12T05:23:35.952Z,1013.42
2023-02-12T05:24:35.948Z,1013.36
2023-02-12T05:25:35.955Z,1013.37
2023-02-12T05:26:35.957Z,1013.43
2023-02-12T05:27:35.929Z,1013.41
2023-02-12T05:28:35.936Z,1013.38
2023-02-12T05:29:36.724Z,1013.32
2023-02-12T05:30:35.908Z,1013.36
2023-02-12T05:31:36.086Z,1013.35
2023-02-12T05:32:35.899Z,1013.36
2023-02-12T05:33:35.899Z,1013.41
2023-02-12T05:34:35.869Z,1013.45
2023-02-12T05:35:35.857Z,1013.46
2023-02-12T05:36:35.871Z,1013.43
2023-02-12T05:37:35.848Z,1013.37
2023-02-12T05:38:35.835Z,1013.46
2023-02-12T05:39:35.825Z,1013.49
2023-02-12T05:40:35.818Z,1013.43
2023-02-12T05:41:35.814Z,1013.50
2023-02-12T05:42:35.824Z,1013.43
2023-02-12T05:43:35.794Z,1013.47
2023-02-12T05:44:35.787Z,1013.40
2023-02-12T05:45:35.778Z,1013.41
2023-02-12T05:46:36.354Z,1013.41
2023-02-12T05:47:35.764Z,1013.43
2023-02-12T05:48:36.726Z,1013.38
2023-02-12T05:49:35.752Z,1013.45
2023-02-12T05:50:35.737Z,1013.54
2023-02-12T05:51:35.729Z,1013.41
2023-02-12T05:52:35.723Z,1013.49
2023-02-12T05:53:35.716Z,1013.49
2023-02-12T05:54:35.713Z,1013.53
2023-02-12T05:55:35.701Z,1013.54
2023-02-12T05:56:35.685Z,1013.50
2023-02-12T05:57:35.673Z,1013.53
2023-02-12T05:58:35.674Z,1013.53
2023-02-12T05:59:35.664Z,1013.53
2023-02-12T06:00:35.662Z,1013.54
2023-02-12T06:01:35.650Z,1013.53
2023-02-12T06:02:35.704Z,1013.46
2023-02-12T06:03:35.679Z,1013.54
2023-02-12T06:04:36.216Z,1013.58
2023-02-12T06:05:35.615Z,1013.56
2023-02-12T06:06:35.602Z,1013.56
2023-02-12T06:07:35.612Z,1013.53
2023-02-12T06:08:35.593Z,1013.52
2023-02-12T06:09:35.596Z,1013.58
2023-02-12T06:10:35.618Z,1013.59
2023-02-12T06:11:35.565Z,1013.62
2023-02-12T06:12:35.568Z,1013.56
2023-02-12T06:13:35.564Z,1013.60
2023-02-12T06:14:35.555Z,1013.58
2023-02-12T06:15:35.534Z,1013.59
2023-02-12T06:16:35.610Z,1013.58
2023-02-12T06:17:35.523Z,1013.53
2023-02-12T06:18:36.513Z,1013.57
2023-02-12T06:19:35.508Z,1013.56
2023-02-12T06:20:35.497Z,1013.56
2023-02-12T06:21:35.520Z,1013.54
2023-02-12T06:22:35.484Z,1013.60
2023-02-12T06:23:35.477Z,1013.57
2023-02-12T06:24:35.478Z,1013.61
2023-02-12T06:25:35.467Z,1013.62
2023-02-12T06:26:35.466Z,1013.61
2023-02-12T06:27:35.464Z,1013.63
2023-02-12T06:28:35.521Z,1013.62
2023-02-12T06:29:35.437Z,1013.62
2023-02-12T06:30:35.441Z,1013.63
2023-02-12T06:31:35.599Z,1013.65
2023-02-12T06:32:35.412Z,1013.66
2023-02-12T06:33:36.221Z,1013.67
2023-02-12T06:34:35.390Z,1013.64
2023-02-12T06:35:35.380Z,1013.67
2023-02-12T06:36:35.373Z,1013.70
2023-02-12T06:37:35.376Z,1013.66
2023-02-12T06:38:35.384Z,1013.65
2023-02-12T06:39:35.353Z,1013.74
2023-02-12T06:40:35.357Z,1013.70
2023-02-12T06:41:35.337Z,1013.75
2023-02-12T06:42:35.331Z,1013.79
2023-02-12T06:43:35.325Z,1013.81
2023-02-12T06:44:35.338Z,1013.79
2023-02-12T06:45:35.316Z,1013.84
2023-02-12T06:46:35.399Z,1013.87
2023-02-12T06:47:35.282Z,1013.84
2023-02-12T06:48:35.288Z,1013.86
2023-02-12T06:49:35.281Z,1013.85
2023-02-12T06:50:35.261Z,1013.91
2023-02-12T06:51:35.254Z,1013.88
2023-02-12T06:52:35.241Z,1013.92
2023-02-12T06:53:35.241Z,1013.91
2023-02-12T06:54:35.232Z,1013.90
2023-02-12T06:55:35.223Z,1013.92
2023-02-12T06:56:35.212Z,1013.96
2023-02-12T06:57:35.216Z,1013.98
2023-02-12T06:58:35.198Z,1013.91
2023-02-12T06:59:35.192Z,1013.95
2023-02-12T07:00:35.197Z,1013.99
2023-02-12T07:01:35.170Z,1013.99
2023-02-12T07:02:37.361Z,1013.97
2023-02-12T07:03:35.179Z,1014.03
2023-02-12T07:04:35.158Z,1014.05
2023-02-12T07:05:35.136Z,1014.03
2023-02-12T07:06:35.752Z,1014.06
2023-02-12T07:07:35.120Z,1014.06
2023-02-12T07:08:35.116Z,1014.05
2023-02-12T07:09:35.105Z,1014.07
2023-02-12T07:10:35.112Z,1014.07
2023-02-12T07:11:37.965Z,1014.06
2023-02-12T07:12:36.102Z,1014.11
2023-02-12T07:13:35.073Z,1014.10
2023-02-12T07:14:35.071Z,1014.10
2023-02-12T07:15:35.054Z,1014.05
2023-02-12T07:16:35.163Z,1014.10
2023-02-12T07:17:35.048Z,1014.06
2023-02-12T07:18:35.050Z,1014.12
2023-02-12T07:19:35.024Z,1014.05
2023-02-12T07:20:35.015Z,1014.16
2023-02-12T07:21:35.009Z,1014.09
2023-02-12T07:22:35.010Z,1014.08
2023-02-12T07:23:34.996Z,1014.11
2023-02-12T07:24:35.741Z,1014.15
2023-02-12T07:25:34.994Z,1014.19
2023-02-12T07:26:34.967Z,1014.15
2023-02-12T07:27:34.967Z,1014.18
2023-02-12T07:28:35.090Z,1014.20
2023-02-12T07:29:34.955Z,1014.24
2023-02-12T07:30:35.847Z,1014.23
2023-02-12T07:31:35.125Z,1014.24
2023-02-12T07:32:34.915Z,1014.23
2023-02-12T07:33:34.926Z,1014.24
2023-02-12T07:34:34.907Z,1014.29
2023-02-12T07:35:34.895Z,1014.25
2023-02-12T07:36:34.889Z,1014.19
2023-02-12T07:37:34.920Z,1014.28
2023-02-12T07:38:35.821Z,1014.21
2023-02-12T07:39:34.870Z,1014.25
2023-02-12T07:40:34.859Z,1014.24
2023-02-12T07:41:34.853Z,1014.24
2023-02-12T07:42:34.846Z,1014.33
2023-02-12T07:43:34.834Z,1014.29
2023-02-12T07:44:34.835Z,1014.31
2023-02-12T07:45:34.903Z,1014.30
2023-02-12T07:46:34.820Z,1014.33
2023-02-12T07:47:34.803Z,1014.28
2023-02-12T07:48:34.801Z,1014.28
2023-02-12T07:49:34.785Z,1014.35
2023-02-12T07:50:34.788Z,1014.24
2023-02-12T07:51:35.745Z,1014.34
2023-02-12T07:52:34.770Z,1014.35
2023-02-12T07:53:34.757Z,1014.29
2023-02-12T07:54:34.749Z,1014.29
2023-02-12T07:55:34.746Z,1014.30
2023-02-12T07:56:34.733Z,1014.29
2023-02-12T07:57:34.746Z,1014.32
2023-02-12T07:58:34.722Z,1014.31
2023-02-12T07:59:34.712Z,1014.29
2023-02-12T08:00:34.711Z,1014.34
2023-02-12T08:01:34.737Z,1014.34
2023-02-12T08:02:34.740Z,1014.37
2023-02-12T08:03:34.696Z,1014.40
2023-02-12T08:04:34.748Z,1014.39
2023-02-12T08:05:34.669Z,1014.42
2023-02-12T08:06:34.669Z,1014.41
2023-02-12T08:07:35.643Z,1014.40
2023-02-12T08:08:35.258Z,1014.43
2023-02-12T08:09:34.673Z,1014.43
2023-02-12T08:10:34.626Z,1014.39
2023-02-12T08:11:34.609Z,1014.41
2023-02-12T08:12:34.619Z,1014.40
2023-02-12T08:13:34.597Z,1014.40
2023-02-12T08:14:34.583Z,1014.39
2023-02-12T08:15:34.583Z,1014.43
2023-02-12T08:16:34.598Z,1014.45
2023-02-12T08:17:34.556Z,1014.37
2023-02-12T08:18:34.567Z,1014.45
2023-02-12T08:19:34.554Z,1014.44
2023-02-12T08:20:34.540Z,1014.42
2023-02-12T08:21:34.535Z,1014.47
2023-02-12T08:22:34.531Z,1014.41
2023-02-12T08:23:34.512Z,1014.42
2023-02-12T08:24:34.503Z,1014.38
2023-02-12T08:25:37.335Z,1014.46
2023-02-12T08:26:36.331Z,1014.51
2023-02-12T08:27:34.484Z,1014.51
2023-02-12T08:28:34.579Z,1014.51
2023-02-12T08:29:34.500Z,1014.51
2023-02-12T08:30:34.463Z,1014.55
2023-02-12T08:31:35.502Z,1014.50
2023-02-12T08:32:34.461Z,1014.50
2023-02-12T08:33:34.435Z,1014.52
2023-02-12T08:34:34.431Z,1014.49
2023-02-12T08:35:34.426Z,1014.51
2023-02-12T08:36:34.411Z,1014.45
2023-02-12T08:37:34.412Z,1014.45
2023-02-12T08:38:34.409Z,1014.48
2023-02-12T08:39:34.390Z,1014.42
2023-02-12T08:40:34.392Z,1014.50
2023-02-12T08:41:35.252Z,1014.48
2023-02-12T08:42:34.353Z,1014.52
2023-02-12T08:43:34.346Z,1014.51
2023-02-12T08:44:34.340Z,1014.51
2023-02-12T08:45:34.331Z,1014.56
2023-02-12T08:46:34.370Z,1014.50
2023-02-12T08:47:34.333Z,1014.56
2023-02-12T08:48:34.333Z,1014.55
2023-02-12T08:49:34.301Z,1014.55
2023-02-12T08:50:34.310Z,1014.53
2023-02-12T08:51:34.306Z,1014.56
2023-02-12T08:52:34.304Z,1014.59
2023-02-12T08:53:34.260Z,1014.58
2023-02-12T08:54:34.269Z,1014.56
2023-02-12T08:55:34.285Z,1014.54
2023-02-12T08:56:34.240Z,1014.54
2023-02-12T08:57:34.232Z,1014.52
2023-02-12T08:58:34.220Z,1014.50
2023-02-12T08:59:34.217Z,1014.54
2023-02-12T09:00:34.209Z,1014.53
2023-02-12T09:01:34.214Z,1014.53
2023-02-12T09:02:34.284Z,1014.55
2023-02-12T09:03:34.181Z,1014.56
2023-02-12T09:04:34.189Z,1014.52
2023-02-12T09:05:34.164Z,1014.52
2023-02-12T09:06:34.155Z,1014.55
2023-02-12T09:07:34.149Z,1014.55
2023-02-12T09:08:34.135Z,1014.58
2023-02-12T09:09:45.752Z,1014.56
2023-02-12T09:10:35.127Z,1014.56
2023-02-12T09:11:34.825Z,1014.58
2023-02-12T09:12:35.104Z,1014.60
2023-02-12T09:13:34.119Z,1014.59
2023-02-12T09:14:34.351Z,1014.58
2023-02-12T09:15:34.078Z,1014.58
2023-02-12T09:16:34.131Z,1014.54
2023-02-12T09:17:34.062Z,1014.64
2023-02-12T09:18:34.056Z,1014.53
2023-02-12T09:19:34.048Z,1014.54
2023-02-12T09:20:34.037Z,1014.63
2023-02-12T09:21:34.036Z,1014.61
2023-02-12T09:22:35.027Z,1014.64
2023-02-12T09:23:34.024Z,1014.61
2023-02-12T09:24:34.007Z,1014.64
2023-02-12T09:25:34.016Z,1014.63
2023-02-12T09:26:33.997Z,1014.69
2023-02-12T09:27:33.985Z,1014.66
2023-02-12T09:28:34.056Z,1014.67
2023-02-12T09:29:33.975Z,1014.68
2023-02-12T09:30:34.039Z,1014.79
2023-02-12T09:31:34.052Z,1014.76
2023-02-12T09:32:33.949Z,1014.77
2023-02-12T09:33:33.943Z,1014.74
2023-02-12T09:34:33.936Z,1014.75
2023-02-12T09:35:33.926Z,1014.74
2023-02-12T09:36:34.833Z,1014.75
2023-02-12T09:37:33.905Z,1014.71
2023-02-12T09:38:33.899Z,1014.77
2023-02-12T09:39:33.898Z,1014.78
2023-02-12T09:40:33.985Z,1014.80
2023-02-12T09:41:33.892Z,1014.81
2023-02-12T09:42:33.877Z,1014.85
2023-02-12T09:43:33.875Z,1014.84
2023-02-12T09:44:33.849Z,1014.87
2023-02-12T09:45:33.840Z,1014.91
2023-02-12T09:46:33.916Z,1014.86
2023-02-12T09:47:33.830Z,1014.87
2023-02-12T09:48:33.825Z,1014.84
2023-02-12T09:49:33.814Z,1014.86
2023-02-12T09:50:33.826Z,1014.89
2023-02-12T09:51:33.789Z,1014.90
2023-02-12T09:52:33.798Z,1014.88
2023-02-12T09:53:33.778Z,1014.93
2023-02-12T09:54:33.777Z,1014.88
2023-02-12T09:55:33.761Z,1014.92
2023-02-12T09:56:33.755Z,1014.87
2023-02-12T09:57:33.762Z,1014.91
2023-02-12T09:58:33.739Z,1014.84
2023-02-12T09:59:33.737Z,1014.88
2023-02-12T10:00:33.759Z,1014.89
2023-02-12T10:01:33.750Z,1014.88
2023-02-12T10:02:34.348Z,1014.92
2023-02-12T10:03:33.705Z,1014.91
2023-02-12T10:04:34.392Z,1014.94
2023-02-12T10:05:33.694Z,1014.94
2023-02-12T10:06:33.679Z,1014.92
2023-02-12T10:07:33.707Z,1014.89
2023-02-12T10:08:34.353Z,1014.95
2023-02-12T10:09:33.703Z,1014.92
2023-02-12T10:10:33.652Z,1014.96
2023-02-12T10:11:33.638Z,1014.94
2023-02-12T10:12:33.650Z,1014.93
2023-02-12T10:13:33.634Z,1014.87
2023-02-12T10:14:33.614Z,1014.85
2023-02-12T10:15:33.659Z,1014.85
2023-02-12T10:16:34.104Z,1014.84
2023-02-12T10:17:33.597Z,1014.86
2023-02-12T10:18:33.590Z,1014.83
2023-02-12T10:19:33.589Z,1014.87
2023-02-12T10:20:33.571Z,1014.90
2023-02-12T10:21:33.573Z,1014.91
2023-02-12T10:22:33.578Z,1014.93
2023-02-12T10:23:33.543Z,1014.96
2023-02-12T10:24:33.586Z,1014.96
2023-02-12T10:25:33.545Z,1014.93
2023-02-12T10:26:33.534Z,1014.93
2023-02-12T10:27:33.525Z,1014.90
2023-02-12T10:28:33.578Z,1014.89
2023-02-12T10:29:33.548Z,1014.90
2023-02-12T10:30:33.562Z,1014.88
2023-02-12T10:31:33.646Z,1014.90
2023-02-12T10:32:33.490Z,1014.93
2023-02-12T10:33:34.596Z,1014.97
2023-02-12T10:34:33.463Z,1014.94
2023-02-12T10:35:33.444Z,1014.90
2023-02-12T10:36:33.435Z,1014.84
2023-02-12T10:37:33.428Z,1014.90
2023-02-12T10:38:33.422Z,1014.88
2023-02-12T10:39:33.418Z,1014.88
2023-02-12T10:40:33.394Z,1014.91
2023-02-12T10:41:33.393Z,1014.96
2023-02-12T10:42:33.389Z,1014.91
2023-02-12T10:43:33.378Z,1014.93
2023-02-12T10:44:33.360Z,1014.87
2023-02-12T10:46:40.215Z,1014.89
2023-02-12T10:47:40.155Z,1014.85
2023-02-12T10:48:41.132Z,1014.88
2023-02-12T10:49:40.129Z,1014.92
2023-02-12T10:50:40.115Z,1014.87
2023-02-12T10:51:40.111Z,1014.87
2023-02-12T10:52:40.111Z,1014.80
2023-02-12T10:53:40.095Z,1014.86
2023-02-12T10:54:42.070Z,1014.78
2023-02-12T10:55:42.068Z,1014.82
2023-02-12T10:56:41.162Z,1014.82
2023-02-12T10:57:41.159Z,1014.80
2023-02-12T10:58:41.153Z,1014.80
2023-02-12T10:59:41.141Z,1014.79
2023-02-12T11:00:41.142Z,1014.74
2023-02-12T11:01:41.151Z,1014.79
2023-02-12T11:02:41.113Z,1014.79
2023-02-12T11:03:41.129Z,1014.79
2023-02-12T11:04:41.120Z,1014.79
2023-02-12T11:05:41.084Z,1014.79
2023-02-12T11:06:41.080Z,1014.80
2023-02-12T11:07:41.070Z,1014.82
2023-02-12T11:08:41.052Z,1014.74
2023-02-12T11:09:41.051Z,1014.74
2023-02-12T11:10:41.042Z,1014.77
2023-02-12T11:11:41.040Z,1014.72
2023-02-12T11:12:41.025Z,1014.75
2023-02-12T11:13:41.025Z,1014.71
2023-02-12T11:14:41.013Z,1014.69
2023-02-12T11:15:41.075Z,1014.65
2023-02-12T11:16:41.024Z,1014.64
2023-02-12T11:17:40.988Z,1014.62
2023-02-12T11:18:40.984Z,1014.61
2023-02-12T11:19:40.967Z,1014.61
2023-02-12T11:20:40.968Z,1014.60
2023-02-12T11:21:40.954Z,1014.58
2023-02-12T11:22:40.947Z,1014.58
2023-02-12T11:23:40.945Z,1014.67
2023-02-12T11:24:40.931Z,1014.58
2023-02-12T11:25:40.919Z,1014.65
2023-02-12T11:26:40.921Z,1014.64
2023-02-12T11:27:40.904Z,1014.58
2023-02-12T11:28:40.947Z,1014.61
2023-02-12T11:29:40.875Z,1014.63
2023-02-12T11:30:41.895Z,1014.57
2023-02-12T11:31:41.629Z,1014.60
2023-02-12T11:32:40.856Z,1014.65
2023-02-12T11:33:40.849Z,1014.60
2023-02-12T11:34:40.848Z,1014.53
2023-02-12T11:35:40.842Z,1014.56
2023-02-12T11:36:40.836Z,1014.57
2023-02-12T11:37:40.815Z,1014.57
2023-02-12T11:38:40.823Z,1014.59
2023-02-12T11:39:40.815Z,1014.60
2023-02-12T11:40:40.796Z,1014.58
2023-02-12T11:41:40.787Z,1014.57
2023-02-12T11:42:40.791Z,1014.63
2023-02-12T11:43:40.768Z,1014.62
2023-02-12T11:44:40.778Z,1014.55
2023-02-12T11:45:40.753Z,1014.54
2023-02-12T11:46:40.773Z,1014.51
2023-02-12T11:47:41.516Z,1014.48
2023-02-12T11:48:40.737Z,1014.48
2023-02-12T11:49:42.691Z,1014.53
2023-02-12T11:50:40.725Z,1014.52
2023-02-12T11:51:40.706Z,1014.48
2023-02-12T11:52:40.714Z,1014.49
2023-02-12T11:53:40.692Z,1014.45
2023-02-12T11:54:40.695Z,1014.47
2023-02-12T11:55:40.678Z,1014.46
2023-02-12T11:56:40.660Z,1014.45
2023-02-12T11:57:41.517Z,1014.46
2023-02-12T11:58:40.660Z,1014.49
2023-02-12T11:59:40.637Z,1014.45
2023-02-12T12:00:40.629Z,1014.48
2023-02-12T12:01:40.637Z,1014.50
2023-02-12T12:02:40.751Z,1014.48
2023-02-12T12:03:40.603Z,1014.51
2023-02-12T12:04:40.598Z,1014.50
2023-02-12T12:05:40.604Z,1014.45
2023-02-12T12:06:41.098Z,1014.45
2023-02-12T12:07:40.575Z,1014.43
2023-02-12T12:08:40.580Z,1014.42
2023-02-12T12:09:40.540Z,1014.46